createdAt,value
2022-12-07T00:00:40.127Z,5.22
2022-12-07T00:04:42.843Z,5.18
2022-12-07T00:08:47.803Z,5.17
2022-12-07T00:12:51.096Z,5.11
2022-12-07T00:16:54.213Z,5.04
2022-12-07T00:21:01.862Z,4.96
2022-12-07T00:25:06.847Z,4.88
2022-12-07T00:29:13.689Z,4.82
2022-12-07T00:33:16.392Z,4.72
2022-12-07T00:37:19.207Z,4.69
2022-12-07T00:41:25.585Z,4.67
2022-12-07T00:45:28.332Z,4.60
2022-12-07T00:49:31.080Z,4.54
2022-12-07T00:53:41.120Z,4.47
2022-12-07T00:57:45.868Z,4.44
2022-12-07T01:01:48.740Z,4.39
2022-12-07T01:05:52.935Z,4.34
2022-12-07T01:09:55.615Z,4.31
2022-12-07T01:14:01.651Z,4.29
2022-12-07T01:18:04.574Z,4.25
2022-12-07T01:22:07.307Z,4.21
2022-12-07T01:26:13.819Z,4.16
2022-12-07T01:30:18.304Z,4.11
2022-12-07T01:34:21.046Z,4.08
2022-12-07T01:38:23.920Z,4.08
2022-12-07T01:42:26.654Z,4.03
2022-12-07T01:46:30.771Z,3.99
2022-12-07T01:50:33.958Z,3.98
2022-12-07T01:54:37.736Z,3.96
2022-12-07T01:58:40.557Z,3.91
2022-12-07T02:02:48.687Z,3.90
2022-12-07T02:06:52.476Z,3.89
2022-12-07T02:10:55.244Z,3.83
2022-12-07T02:15:01.577Z,3.79
2022-12-07T02:19:38.270Z,3.79
2022-12-07T02:24:07.262Z,3.77
2022-12-07T02:28:20.939Z,3.76
2022-12-07T02:32:30.911Z,3.75
2022-12-07T02:36:39.948Z,3.71
2022-12-07T02:40:48.271Z,3.68
2022-12-07T02:44:52.231Z,3.64
2022-12-07T02:48:56.947Z,3.63
2022-12-07T02:52:59.641Z,3.62
2022-12-07T02:57:14.445Z,3.60
2022-12-07T03:01:28.880Z,3.58
2022-12-07T03:05:46.261Z,3.55
2022-12-07T03:09:56.795Z,3.53
2022-12-07T03:14:05.503Z,3.51
2022-12-07T03:18:11.393Z,3.54
2022-12-07T03:22:16.494Z,3.55
2022-12-07T03:26:24.033Z,3.58
2022-12-07T03:30:32.052Z,3.61
2022-12-07T03:34:39.983Z,3.60
2022-12-07T03:38:49.920Z,3.61
2022-12-07T03:42:55.331Z,3.63
2022-12-07T03:47:04.630Z,3.63
2022-12-07T03:51:15.922Z,3.60
2022-12-07T03:55:26.690Z,3.57
2022-12-07T03:59:30.697Z,3.54
2022-12-07T04:03:33.441Z,3.54
2022-12-07T04:07:36.280Z,3.47
2022-12-07T04:11:40.413Z,3.45
2022-12-07T04:15:43.244Z,3.39
2022-12-07T04:19:45.984Z,3.35
2022-12-07T04:23:48.703Z,3.32
2022-12-07T04:27:52.785Z,3.33
2022-12-07T04:31:55.668Z,3.34
2022-12-07T04:35:58.475Z,3.34
2022-12-07T04:40:01.621Z,3.39
2022-12-07T04:44:08.306Z,3.43
2022-12-07T04:48:11.014Z,3.46
2022-12-07T04:52:13.685Z,3.47
2022-12-07T04:56:16.969Z,3.50
2022-12-07T05:00:21.627Z,3.54
2022-12-07T05:04:24.422Z,3.54
2022-12-07T05:08:27.256Z,3.52
2022-12-07T05:12:30.032Z,3.50
2022-12-07T05:16:34.379Z,3.43
2022-12-07T05:20:42.280Z,3.38
2022-12-07T05:24:45.492Z,3.35
2022-12-07T05:28:52.629Z,3.33
2022-12-07T05:32:56.753Z,3.33
2022-12-07T05:36:59.472Z,3.31
2022-12-07T05:41:03.403Z,3.34
2022-12-07T05:45:07.871Z,3.31
2022-12-07T05:49:11.952Z,3.28
2022-12-07T05:53:17.485Z,3.22
2022-12-07T05:57:24.258Z,3.17
2022-12-07T06:01:27.003Z,3.16
2022-12-07T06:05:31.098Z,3.14
2022-12-07T06:09:34.436Z,3.10
2022-12-07T06:13:41.116Z,3.10
2022-12-07T06:17:46.547Z,3.07
2022-12-07T06:21:50.569Z,3.03
2022-12-07T06:25:53.288Z,2.99
2022-12-07T06:29:55.958Z,2.95
2022-12-07T06:34:02.664Z,2.94
2022-12-07T06:38:06.752Z,2.96
2022-12-07T06:42:09.468Z,2.95
2022-12-07T06:46:12.240Z,2.97
2022-12-07T06:50:14.994Z,3.00
2022-12-07T06:54:19.389Z,3.03
2022-12-07T06:58:22.242Z,3.04
2022-12-07T07:02:25.011Z,3.06
2022-12-07T07:06:28.051Z,3.08
2022-12-07T07:10:32.199Z,3.06
2022-12-07T07:14:34.957Z,3.00
2022-12-07T07:18:37.830Z,2.95
2022-12-07T07:22:40.779Z,2.94
2022-12-07T07:26:44.846Z,2.91
2022-12-07T07:30:47.584Z,2.91
2022-12-07T07:34:50.640Z,2.89
2022-12-07T07:38:53.658Z,2.92
2022-12-07T07:42:58.402Z,2.93
2022-12-07T07:47:01.244Z,2.94
2022-12-07T07:51:07.458Z,2.94
2022-12-07T07:55:10.771Z,2.96
2022-12-07T07:59:14.947Z,2.99
2022-12-07T08:03:17.795Z,3.04
2022-12-07T08:07:20.869Z,3.10
2022-12-07T08:11:23.565Z,3.14
2022-12-07T08:15:29.171Z,3.19
2022-12-07T08:19:32.156Z,3.23
2022-12-07T08:23:39.938Z,3.32
2022-12-07T08:27:43.017Z,3.38
2022-12-07T08:31:47.205Z,3.37
2022-12-07T08:35:49.907Z,3.35
2022-12-07T08:39:52.820Z,3.34
2022-12-07T08:43:55.592Z,3.37
2022-12-07T08:48:04.569Z,3.39
2022-12-07T08:52:07.992Z,3.41
2022-12-07T08:56:11.273Z,3.41
2022-12-07T09:00:15.624Z,3.42
2022-12-07T09:04:19.706Z,3.43
2022-12-07T09:08:23.879Z,3.49
2022-12-07T09:12:26.652Z,3.50
2022-12-07T09:16:29.588Z,3.52
2022-12-07T09:20:34.134Z,3.50
2022-12-07T09:24:37.020Z,3.50
2022-12-07T09:28:40.086Z,3.52
2022-12-07T09:32:42.928Z,3.52
2022-12-07T09:36:47.763Z,3.58
2022-12-07T09:40:50.697Z,3.71
2022-12-07T09:44:53.509Z,3.84
2022-12-07T09:48:56.332Z,3.92
2022-12-07T09:53:09.715Z,3.98
2022-12-07T09:57:13.774Z,4.01
2022-12-07T10:01:19.541Z,4.07
2022-12-07T10:05:26.647Z,4.11
2022-12-07T10:09:35.717Z,4.20
2022-12-07T10:13:40.384Z,4.23
2022-12-07T10:17:50.651Z,4.25
2022-12-07T10:22:07.013Z,4.26
2022-12-07T10:26:29.719Z,4.42
2022-12-07T10:30:34.571Z,4.52
2022-12-07T10:34:50.466Z,4.63
2022-12-07T10:39:04.920Z,4.75
2022-12-07T10:43:20.708Z,4.84
2022-12-07T10:47:35.627Z,4.84
2022-12-07T10:51:46.115Z,4.82
2022-12-07T10:56:04.193Z,4.86
2022-12-07T11:00:15.794Z,4.93
2022-12-07T11:04:32.940Z,4.96
2022-12-07T11:08:46.875Z,5.02
2022-12-07T11:13:05.376Z,5.04
2022-12-07T11:17:16.394Z,5.08
2022-12-07T11:21:25.954Z,5.12
2022-12-07T11:25:34.093Z,5.16
2022-12-07T11:29:51.632Z,5.20
2022-12-07T11:34:02.926Z,5.28
2022-12-07T11:38:16.459Z,5.44
2022-12-07T11:42:24.451Z,5.59
2022-12-07T11:46:36.126Z,5.64
2022-12-07T11:50:44.560Z,5.67
2022-12-07T11:54:49.537Z,5.72
2022-12-07T11:58:57.151Z,5.77
2022-12-07T12:03:05.276Z,5.80
2022-12-07T12:11:49.582Z,5.71
2022-12-07T12:16:10.902Z,5.73
2022-12-07T12:20:23.838Z,5.81
2022-12-07T12:24:30.878Z,5.91
2022-12-07T12:28:44.178Z,6.01
2022-12-07T12:32:51.534Z,6.08
2022-12-07T12:36:54.343Z,6.08
2022-12-07T12:40:59.181Z,6.12
2022-12-07T12:45:19.643Z,6.13
2022-12-07T12:50:00.941Z,6.17
2022-12-07T12:54:06.586Z,6.22
2022-12-07T12:58:43.035Z,6.17
2022-12-07T13:02:50.960Z,6.23
2022-12-07T13:06:54.255Z,6.20
2022-12-07T13:11:21.363Z,6.21
2022-12-07T13:15:37.570Z,6.15
2022-12-07T13:20:02.479Z,6.12
2022-12-07T13:24:14.280Z,6.12
2022-12-07T13:28:19.293Z,6.07
2022-12-07T13:32:26.694Z,6.00
2022-12-07T13:36:36.423Z,5.93
2022-12-07T13:40:39.351Z,5.91
2022-12-07T13:44:43.080Z,5.87
2022-12-07T13:48:49.540Z,5.89
2022-12-07T13:52:52.513Z,5.93
2022-12-07T13:56:55.580Z,5.91
2022-12-07T14:00:58.843Z,5.91
2022-12-07T14:05:12.033Z,5.82
2022-12-07T14:09:21.251Z,5.75
2022-12-07T14:13:32.329Z,5.75
2022-12-07T14:17:35.091Z,5.74
2022-12-07T14:21:39.207Z,5.75
2022-12-07T14:25:51.469Z,5.74
2022-12-07T14:29:54.537Z,5.75
2022-12-07T14:34:01.198Z,5.78
2022-12-07T14:38:05.330Z,5.82
2022-12-07T14:42:09.551Z,5.83
2022-12-07T14:46:12.639Z,5.88
2022-12-07T14:50:17.071Z,5.89
2022-12-07T14:54:22.671Z,5.89
2022-12-07T14:58:25.364Z,5.88
2022-12-07T15:02:28.097Z,5.83
2022-12-07T15:06:30.814Z,5.78
2022-12-07T15:10:39.511Z,5.72
2022-12-07T15:14:42.253Z,5.67
2022-12-07T15:18:53.199Z,5.66
2022-12-07T15:23:07.853Z,5.65
2022-12-07T15:27:12.014Z,5.60
2022-12-07T15:31:46.503Z,5.56
2022-12-07T15:35:40.666Z,5.50
2022-12-07T15:39:43.713Z,5.43
2022-12-07T15:44:05.732Z,5.41
2022-12-07T15:52:31.279Z,5.32
2022-12-07T15:56:34.018Z,5.27
2022-12-07T16:00:38.110Z,5.22
2022-12-07T16:04:40.947Z,5.19
2022-12-07T16:08:44.341Z,5.19
2022-12-07T16:12:47.082Z,5.20
2022-12-07T16:16:51.306Z,5.18
2022-12-07T16:20:54.014Z,5.16
2022-12-07T16:24:56.751Z,5.15
2022-12-07T16:29:00.002Z,5.15
2022-12-07T16:33:04.236Z,5.15
2022-12-07T16:37:06.926Z,5.15
2022-12-07T16:41:10.500Z,5.15
2022-12-07T16:45:19.358Z,5.13
2022-12-07T16:49:25.678Z,5.10
2022-12-07T16:53:28.413Z,5.07
2022-12-07T16:57:32.310Z,5.00
2022-12-07T17:01:35.503Z,4.96
2022-12-07T17:05:41.660Z,4.88
2022-12-07T17:09:44.402Z,4.86
2022-12-07T17:14:04.982Z,4.86
2022-12-07T17:18:07.718Z,4.84
2022-12-07T17:22:13.469Z,4.83
2022-12-07T17:26:18.343Z,4.83
2022-12-07T17:30:21.327Z,4.87
2022-12-07T17:34:24.242Z,4.84
2022-12-07T17:38:30.519Z,4.80
2022-12-07T17:42:40.273Z,4.81
2022-12-07T17:46:43.452Z,4.82
2022-12-07T17:51:03.576Z,4.79
2022-12-07T17:55:08.724Z,4.77
2022-12-07T17:59:11.838Z,4.72
2022-12-07T18:03:14.659Z,4.65
2022-12-07T18:07:17.950Z,4.62
2022-12-07T18:11:22.038Z,4.61
2022-12-07T18:15:26.685Z,4.54
2022-12-07T18:19:29.428Z,4.53
2022-12-07T18:23:33.738Z,4.54
2022-12-07T18:27:38.737Z,4.55
2022-12-07T18:31:41.613Z,4.55
2022-12-07T18:35:44.351Z,4.55
2022-12-07T18:39:47.042Z,4.54
2022-12-07T18:43:51.144Z,4.49
2022-12-07T18:47:53.931Z,4.45
2022-12-07T18:51:56.678Z,4.41
2022-12-07T18:56:03.841Z,4.42
2022-12-07T19:00:09.582Z,4.40
2022-12-07T19:04:12.537Z,4.41
2022-12-07T19:08:15.601Z,4.40
2022-12-07T19:12:18.551Z,4.37
2022-12-07T19:16:22.705Z,4.35
2022-12-07T19:20:25.715Z,4.37
2022-12-07T19:24:28.470Z,4.37
2022-12-07T19:28:31.185Z,4.34
2022-12-07T19:32:35.258Z,4.32
2022-12-07T19:36:38.135Z,4.30
2022-12-07T19:40:40.805Z,4.28
2022-12-07T19:44:43.550Z,4.25
2022-12-07T19:48:47.619Z,4.22
2022-12-07T19:52:50.332Z,4.21
2022-12-07T19:56:54.316Z,4.19
2022-12-07T20:00:57.137Z,4.19
2022-12-07T20:05:05.972Z,4.15
2022-12-07T20:09:09.304Z,4.13
2022-12-07T20:13:32.022Z,4.10
2022-12-07T20:17:34.807Z,4.09
2022-12-07T20:21:39.379Z,4.06
2022-12-07T20:25:42.070Z,4.06
2022-12-07T20:29:45.203Z,4.05
2022-12-07T20:33:49.300Z,4.04
2022-12-07T20:37:53.422Z,4.04
2022-12-07T20:42:10.076Z,3.98
2022-12-07T20:46:13.203Z,3.97
2022-12-07T20:50:16.056Z,3.96
2022-12-07T20:54:20.125Z,3.90
2022-12-07T20:58:27.134Z,3.83
2022-12-07T21:02:31.342Z,3.83
2022-12-07T21:06:34.139Z,3.83
2022-12-07T21:10:38.211Z,3.84
2022-12-07T21:14:42.188Z,3.79
2022-12-07T21:18:47.799Z,3.78
2022-12-07T21:22:50.552Z,3.80
2022-12-07T21:26:54.686Z,3.78
2022-12-07T21:31:13.088Z,3.76
2022-12-07T21:35:16.400Z,3.80
2022-12-07T21:39:19.213Z,3.78
2022-12-07T21:43:23.308Z,3.76
2022-12-07T21:47:26.103Z,3.76
2022-12-07T21:51:30.638Z,3.79
2022-12-07T21:55:33.436Z,3.74
2022-12-07T21:59:37.558Z,3.73
2022-12-07T22:03:40.241Z,3.72
2022-12-07T22:07:43.009Z,3.75
2022-12-07T22:11:45.890Z,3.74
2022-12-07T22:15:50.047Z,3.76
2022-12-07T22:19:52.820Z,3.78
2022-12-07T22:23:55.592Z,3.77
2022-12-07T22:27:58.293Z,3.74
2022-12-07T22:32:18.527Z,3.73
2022-12-07T22:36:25.435Z,3.73
2022-12-07T22:40:28.164Z,3.67
2022-12-07T22:44:30.903Z,3.67
2022-12-07T22:48:35.212Z,3.63
2022-12-07T22:52:37.911Z,3.56
2022-12-07T22:56:40.700Z,3.52
2022-12-07T23:00:43.452Z,3.49
2022-12-07T23:04:47.521Z,3.45
2022-12-07T23:08:51.155Z,3.44
2022-12-07T23:13:26.237Z,3.39
2022-12-07T23:17:30.142Z,3.34
2022-12-07T23:21:34.525Z,3.33
2022-12-07T23:25:38.363Z,3.30
2022-12-07T23:29:41.176Z,3.26
2022-12-07T23:33:44.860Z,3.20
2022-12-07T23:37:49.008Z,3.19
2022-12-07T23:41:51.750Z,3.18
2022-12-07T23:45:54.489Z,3.13
2022-12-07T23:49:57.259Z,3.11
2022-12-07T23:54:02.091Z,3.08
2022-12-07T23:58:04.852Z,3.07
